KAUM

Austin Municipal Airport

Austin, Minnesota, USA
METAR KAUM 170916Z AUTO 36007KT 2SM -SN OVC006 M03/M04 A3022 RMK AO2
Observed Flight Rules
Nov-17 @ 09:16 UTC (7 minutes ago) Instrument Flight Rules
Wind Visibility Clouds Conditions
360° at 7 knots 2 miles
  • Overcast at 600' AGL
  • Light Snow
Temperatures Readings
Current -3°C / 27°F
Dewpoint -4°C / 25°F
Humidity 93%
Altimeter 30.22" Hg
Pressure 1023 hPa
Elevation 375
METAR KAUM 170916Z AUTO 36007KT 2SM -SN OVC006 M03/M04 A3022 RMK AO2
Observed Flight Rules
Nov-17 @ 09:16 UTC
(7 minutes ago)
IFR
Wind Visibility
360° at 7 knots 2 miles
Clouds
  • Overcast at 600' AGL
Conditions
  • Light Snow
Temperature Dewpoint
-3°C / 27°F -4°C / 25°F
Humidity Altimeter Pressure
93% 30.22" Hg 1023 hPa